createdAt,value
2018-04-26T00:00:10.691Z,12.64
2018-04-26T00:00:36.836Z,12.68
2018-04-26T00:01:03.001Z,12.68
2018-04-26T00:01:29.171Z,12.58
2018-04-26T00:01:55.310Z,12.62
2018-04-26T00:02:21.448Z,12.68
2018-04-26T00:02:47.588Z,12.67
2018-04-26T00:03:13.718Z,12.64
2018-04-26T00:03:39.858Z,12.68
2018-04-26T00:04:06.042Z,12.5
2018-04-26T00:04:32.203Z,12.57
2018-04-26T00:04:58.342Z,12.61
2018-04-26T00:05:24.470Z,12.62
2018-04-26T00:05:50.636Z,12.62
2018-04-26T00:06:16.797Z,12.65
2018-04-26T00:06:43.005Z,12.6
2018-04-26T00:07:09.069Z,12.62
2018-04-26T00:07:35.210Z,12.64
2018-04-26T00:08:01.340Z,12.64
2018-04-26T00:08:27.481Z,12.65
2018-04-26T00:08:53.652Z,12.67
2018-04-26T00:09:19.806Z,12.64
2018-04-26T00:09:45.973Z,12.62
2018-04-26T00:10:12.110Z,12.54
2018-04-26T00:10:38.247Z,12.55
2018-04-26T00:11:04.405Z,12.53
2018-04-26T00:11:30.545Z,12.53
2018-04-26T00:11:56.710Z,12.54
2018-04-26T00:12:22.854Z,12.54
2018-04-26T00:12:48.986Z,12.46
2018-04-26T00:13:15.122Z,12.49
2018-04-26T00:13:41.262Z,12.54
2018-04-26T00:14:07.397Z,12.47
2018-04-26T00:14:33.557Z,12.49
2018-04-26T00:14:59.696Z,12.45
2018-04-26T00:15:25.890Z,12.46
2018-04-26T00:15:52.026Z,12.47
2018-04-26T00:16:18.166Z,12.49
2018-04-26T00:16:44.300Z,12.43
2018-04-26T00:17:10.442Z,12.49
2018-04-26T00:17:36.603Z,12.43
2018-04-26T00:18:02.798Z,12.43
2018-04-26T00:18:28.887Z,12.45
2018-04-26T00:18:55.023Z,12.45
2018-04-26T00:19:21.165Z,12.45
2018-04-26T00:19:47.308Z,12.53
2018-04-26T00:20:13.442Z,12.4
2018-04-26T00:20:39.605Z,12.45
2018-04-26T00:21:05.746Z,12.42
2018-04-26T00:21:31.881Z,12.42
2018-04-26T00:21:58.042Z,12.36
2018-04-26T00:22:24.179Z,12.39
2018-04-26T00:22:50.318Z,12.35
2018-04-26T00:23:16.480Z,12.37
2018-04-26T00:23:42.616Z,12.32
2018-04-26T00:24:08.753Z,12.36
2018-04-26T00:24:34.885Z,12.43
2018-04-26T00:25:01.024Z,12.36
2018-04-26T00:25:27.168Z,12.37
2018-04-26T00:25:53.301Z,12.27
2018-04-26T00:26:19.437Z,12.32
2018-04-26T00:26:45.600Z,12.37
2018-04-26T00:27:11.739Z,12.36
2018-04-26T00:27:37.874Z,12.36
2018-04-26T00:28:04.013Z,12.43
2018-04-26T00:28:30.174Z,12.37
2018-04-26T00:28:56.313Z,12.31
2018-04-26T00:29:22.476Z,12.37
2018-04-26T00:29:48.629Z,12.39
2018-04-26T00:30:14.771Z,12.43
2018-04-26T00:30:40.911Z,12.47
2018-04-26T00:31:07.050Z,12.46
2018-04-26T00:31:33.186Z,12.4
2018-04-26T00:31:59.328Z,12.42
2018-04-26T00:32:25.464Z,12.45
2018-04-26T00:32:51.604Z,12.47
2018-04-26T00:33:17.748Z,12.46
2018-04-26T00:33:43.882Z,12.49
2018-04-26T00:34:10.022Z,12.43
2018-04-26T00:34:36.187Z,12.47
2018-04-26T00:35:02.324Z,12.45
2018-04-26T00:35:28.457Z,12.46
2018-04-26T00:35:54.605Z,12.49
2018-04-26T00:36:20.737Z,12.43
2018-04-26T00:36:46.881Z,12.47
2018-04-26T00:37:13.019Z,12.49
2018-04-26T00:37:39.161Z,12.39
2018-04-26T00:38:05.303Z,12.47
2018-04-26T00:38:31.471Z,12.47
2018-04-26T00:38:57.634Z,12.4
2018-04-26T00:39:23.791Z,12.43
2018-04-26T00:39:49.910Z,12.4
2018-04-26T00:40:16.048Z,12.35
2018-04-26T00:40:42.188Z,12.46
2018-04-26T00:41:08.326Z,12.49
2018-04-26T00:41:34.463Z,12.45
2018-04-26T00:42:00.597Z,12.49
2018-04-26T00:42:26.739Z,12.49
2018-04-26T00:42:52.892Z,12.53
2018-04-26T00:43:19.039Z,12.53
2018-04-26T00:43:45.175Z,12.55
2018-04-26T00:44:11.314Z,12.49
2018-04-26T00:44:37.481Z,12.53
2018-04-26T00:45:03.615Z,12.55
2018-04-26T00:45:29.760Z,12.55
2018-04-26T00:45:55.893Z,12.6
2018-04-26T00:46:22.031Z,12.61
2018-04-26T00:46:48.195Z,12.65
2018-04-26T00:47:14.335Z,12.64
2018-04-26T00:47:40.492Z,12.53
2018-04-26T00:48:06.641Z,12.53
2018-04-26T00:48:32.771Z,12.53
2018-04-26T00:48:58.914Z,12.53
2018-04-26T00:49:25.040Z,12.54
2018-04-26T00:49:51.175Z,12.54
2018-04-26T00:50:17.339Z,12.67
2018-04-26T00:50:43.502Z,12.6
2018-04-26T00:51:09.636Z,12.64
2018-04-26T00:51:35.782Z,12.7
2018-04-26T00:52:01.917Z,12.61
2018-04-26T00:52:28.048Z,12.75
2018-04-26T00:52:54.193Z,12.62
2018-04-26T00:53:20.329Z,12.62
2018-04-26T00:53:46.491Z,12.6
2018-04-26T00:54:12.652Z,12.7
2018-04-26T00:54:38.823Z,12.68
2018-04-26T00:55:04.983Z,12.6
2018-04-26T00:55:31.167Z,12.75
2018-04-26T00:55:57.314Z,12.75
2018-04-26T00:56:23.448Z,12.73
2018-04-26T00:56:49.591Z,12.54
2018-04-26T00:57:15.724Z,12.61
2018-04-26T00:57:41.870Z,12.62
2018-04-26T00:58:08.040Z,12.65
2018-04-26T00:58:34.176Z,12.7
2018-04-26T00:59:00.307Z,12.61
2018-04-26T00:59:26.481Z,12.6
2018-04-26T00:59:52.639Z,12.68
2018-04-26T01:00:18.781Z,12.7
2018-04-26T01:00:44.917Z,12.61
2018-04-26T01:01:11.056Z,12.57
2018-04-26T01:01:37.198Z,12.49
2018-04-26T01:02:03.342Z,12.47
2018-04-26T01:02:29.479Z,12.49
2018-04-26T01:02:55.615Z,12.49
2018-04-26T01:03:21.787Z,12.53
2018-04-26T01:03:47.928Z,12.49
2018-04-26T01:04:14.063Z,12.53
2018-04-26T01:04:40.212Z,12.54
2018-04-26T01:05:06.375Z,12.49
2018-04-26T01:05:32.504Z,12.46
2018-04-26T01:05:58.645Z,12.54
2018-04-26T01:06:24.790Z,12.46
2018-04-26T01:06:50.958Z,12.46
2018-04-26T01:07:17.123Z,12.57
2018-04-26T01:07:43.255Z,12.49
2018-04-26T01:08:09.393Z,12.49
2018-04-26T01:08:35.559Z,12.47
2018-04-26T01:09:01.701Z,12.4
2018-04-26T01:09:27.834Z,12.42
2018-04-26T01:09:53.977Z,12.43
2018-04-26T01:10:20.137Z,12.45
2018-04-26T01:10:46.276Z,12.42
2018-04-26T01:11:12.416Z,12.43
2018-04-26T01:11:38.550Z,12.42
2018-04-26T01:12:04.716Z,12.47
2018-04-26T01:12:30.879Z,12.37
2018-04-26T01:12:57.030Z,12.43
2018-04-26T01:13:23.171Z,12.49
2018-04-26T01:13:49.326Z,12.4
2018-04-26T01:14:15.463Z,12.39
2018-04-26T01:14:41.633Z,12.4
2018-04-26T01:15:07.776Z,12.43
2018-04-26T01:15:33.917Z,12.45
2018-04-26T01:16:00.061Z,12.47
2018-04-26T01:16:26.195Z,12.37
2018-04-26T01:16:52.362Z,12.4
2018-04-26T01:17:18.501Z,12.46
2018-04-26T01:17:44.637Z,12.49
2018-04-26T01:18:10.771Z,12.43
2018-04-26T01:18:36.920Z,12.47
2018-04-26T01:19:03.051Z,12.47
2018-04-26T01:19:29.197Z,12.43
2018-04-26T01:19:55.332Z,12.46
2018-04-26T01:20:21.493Z,12.49
2018-04-26T01:20:47.628Z,12.5
2018-04-26T01:21:13.773Z,12.49
2018-04-26T01:21:39.908Z,12.4
2018-04-26T01:22:06.058Z,12.43
2018-04-26T01:22:32.200Z,12.46
2018-04-26T01:22:58.365Z,12.46
2018-04-26T01:23:24.519Z,12.43
2018-04-26T01:23:50.657Z,12.42
2018-04-26T01:24:16.818Z,12.45
2018-04-26T01:24:42.955Z,12.43
2018-04-26T01:25:09.101Z,12.35
2018-04-26T01:25:35.226Z,12.39
2018-04-26T01:26:01.391Z,12.39
2018-04-26T01:26:27.536Z,12.42
2018-04-26T01:26:53.673Z,12.4
2018-04-26T01:27:19.833Z,12.42
2018-04-26T01:27:45.996Z,12.49
2018-04-26T01:28:12.132Z,12.42
2018-04-26T01:28:38.271Z,12.49
2018-04-26T01:29:04.441Z,12.5
2018-04-26T01:29:30.576Z,12.47
2018-04-26T01:29:56.720Z,12.49
2018-04-26T01:30:22.856Z,12.43
2018-04-26T01:30:48.995Z,12.47
2018-04-26T01:31:15.134Z,12.47
2018-04-26T01:31:41.276Z,12.47
2018-04-26T01:32:07.461Z,12.45
2018-04-26T01:32:33.602Z,12.39
2018-04-26T01:32:59.741Z,12.35
2018-04-26T01:33:25.904Z,12.35
2018-04-26T01:33:52.066Z,12.37
2018-04-26T01:34:18.255Z,12.29
2018-04-26T01:34:44.392Z,12.37
2018-04-26T01:35:10.526Z,12.4
2018-04-26T01:35:36.673Z,12.39
2018-04-26T01:36:02.823Z,12.28
2018-04-26T01:36:28.973Z,12.32
2018-04-26T01:36:55.137Z,12.32
2018-04-26T01:37:21.268Z,12.42
2018-04-26T01:37:47.408Z,12.29
2018-04-26T01:38:13.550Z,12.28
2018-04-26T01:38:39.716Z,12.29
2018-04-26T01:39:05.855Z,12.35
2018-04-26T01:39:31.989Z,12.31
2018-04-26T01:39:58.129Z,12.31
2018-04-26T01:40:24.271Z,12.29
2018-04-26T01:40:50.434Z,12.36
2018-04-26T01:41:16.578Z,12.36
2018-04-26T01:41:42.741Z,12.37
2018-04-26T01:42:08.884Z,12.37
2018-04-26T01:42:35.016Z,12.35
2018-04-26T01:43:01.158Z,12.37
2018-04-26T01:43:27.317Z,12.31
2018-04-26T01:43:53.488Z,12.42
2018-04-26T01:44:19.627Z,12.32
2018-04-26T01:44:45.786Z,12.42
2018-04-26T01:45:11.923Z,12.43
2018-04-26T01:45:38.060Z,12.42
2018-04-26T01:46:04.202Z,12.39
2018-04-26T01:46:30.364Z,12.43
2018-04-26T01:46:56.508Z,12.37
2018-04-26T01:47:22.656Z,12.32
2018-04-26T01:47:48.793Z,12.39
2018-04-26T01:48:14.926Z,12.4
2018-04-26T01:48:41.085Z,12.37
2018-04-26T01:49:07.257Z,12.4
2018-04-26T01:49:33.411Z,12.39
2018-04-26T01:49:59.550Z,12.32
2018-04-26T01:50:25.687Z,12.31
2018-04-26T01:50:51.830Z,12.27
2018-04-26T01:51:17.964Z,12.24
2018-04-26T01:51:44.127Z,12.25
2018-04-26T01:52:10.261Z,12.25
2018-04-26T01:52:36.426Z,12.28
2018-04-26T01:53:02.591Z,12.21
2018-04-26T01:53:28.784Z,12.25
2018-04-26T01:53:54.923Z,12.25
2018-04-26T01:54:21.065Z,12.29
2018-04-26T01:54:47.199Z,12.28
2018-04-26T01:55:13.358Z,12.27
2018-04-26T01:55:39.502Z,12.27
2018-04-26T01:56:05.646Z,12.4
2018-04-26T01:56:31.785Z,12.39
2018-04-26T01:56:57.911Z,12.22
2018-04-26T01:57:24.055Z,12.4
2018-04-26T01:57:50.209Z,12.28
2018-04-26T01:58:16.380Z,12.29
2018-04-26T01:58:42.533Z,12.25
2018-04-26T01:59:08.672Z,12.29
2018-04-26T01:59:34.839Z,12.18
2018-04-26T02:00:00.977Z,12.22
2018-04-26T02:00:27.117Z,12.22
2018-04-26T02:00:53.258Z,12.13
2018-04-26T02:01:19.396Z,12.09
2018-04-26T02:01:45.534Z,12.06
2018-04-26T02:02:11.671Z,12.09
2018-04-26T02:02:37.824Z,12.13
2018-04-26T02:03:03.972Z,12.09
2018-04-26T02:03:30.104Z,12.1
2018-04-26T02:03:56.276Z,11.91
2018-04-26T02:04:22.434Z,12.07
2018-04-26T02:04:48.574Z,11.97
2018-04-26T02:05:14.704Z,11.94
2018-04-26T02:05:40.919Z,11.95
2018-04-26T02:06:06.988Z,11.91
2018-04-26T02:06:33.160Z,11.9
2018-04-26T02:06:59.291Z,11.94
2018-04-26T02:07:25.454Z,11.95
2018-04-26T02:07:51.598Z,11.95
2018-04-26T02:08:17.733Z,11.94
2018-04-26T02:08:43.867Z,11.81
2018-04-26T02:09:10.013Z,11.86
2018-04-26T02:09:36.150Z,11.86
2018-04-26T02:10:02.280Z,11.81
2018-04-26T02:10:28.439Z,11.83
2018-04-26T02:10:54.598Z,11.91
2018-04-26T02:11:20.741Z,11.88
2018-04-26T02:11:46.927Z,11.84
2018-04-26T02:12:13.021Z,11.88
2018-04-26T02:12:39.156Z,11.86
2018-04-26T02:13:05.306Z,11.9
2018-04-26T02:13:31.446Z,11.86
2018-04-26T02:13:57.627Z,11.9
2018-04-26T02:14:23.788Z,11.87
2018-04-26T02:14:49.935Z,11.91
2018-04-26T02:15:16.109Z,11.88
2018-04-26T02:15:42.240Z,11.86
2018-04-26T02:16:08.375Z,11.88
2018-04-26T02:16:34.523Z,11.97
2018-04-26T02:17:00.664Z,11.88
2018-04-26T02:17:26.804Z,11.97
2018-04-26T02:17:52.939Z,11.94
2018-04-26T02:18:19.084Z,11.87
2018-04-26T02:18:45.221Z,11.91
2018-04-26T02:19:11.360Z,11.95
2018-04-26T02:19:37.498Z,11.86
2018-04-26T02:20:03.637Z,11.86
2018-04-26T02:20:29.771Z,11.91
2018-04-26T02:20:55.914Z,11.83
2018-04-26T02:21:22.070Z,11.83
2018-04-26T02:21:48.211Z,11.8
2018-04-26T02:22:14.344Z,11.86
2018-04-26T02:22:40.482Z,11.87
2018-04-26T02:23:06.627Z,11.78
2018-04-26T02:23:32.756Z,11.81
2018-04-26T02:23:58.905Z,11.81
2018-04-26T02:24:25.064Z,11.78
2018-04-26T02:24:51.207Z,11.78
2018-04-26T02:25:17.343Z,11.73
2018-04-26T02:25:43.484Z,11.8
2018-04-26T02:26:09.619Z,11.84
2018-04-26T02:26:35.760Z,11.84
2018-04-26T02:27:01.922Z,11.87
2018-04-26T02:27:28.065Z,11.81
2018-04-26T02:27:54.200Z,11.8
2018-04-26T02:28:20.343Z,11.83
2018-04-26T02:28:46.503Z,11.8
2018-04-26T02:29:12.677Z,11.78
2018-04-26T02:29:38.808Z,11.83
2018-04-26T02:30:04.942Z,11.87
2018-04-26T02:30:31.112Z,11.94
2018-04-26T02:30:57.274Z,11.91
2018-04-26T02:31:23.439Z,11.9
2018-04-26T02:31:49.609Z,11.9
2018-04-26T02:32:15.803Z,11.87
2018-04-26T02:32:41.957Z,11.91
2018-04-26T02:33:08.156Z,11.86
2018-04-26T02:33:34.319Z,11.87
2018-04-26T02:34:00.512Z,11.87
2018-04-26T02:34:26.676Z,11.73
2018-04-26T02:34:52.807Z,11.8
2018-04-26T02:35:18.971Z,11.8
2018-04-26T02:35:45.136Z,11.84
2018-04-26T02:36:11.272Z,11.86
2018-04-26T02:36:37.436Z,11.86
2018-04-26T02:37:03.578Z,11.91
2018-04-26T02:37:29.743Z,11.88
2018-04-26T02:37:55.906Z,11.84
2018-04-26T02:38:22.081Z,11.86
2018-04-26T02:38:48.218Z,11.86
2018-04-26T02:39:14.414Z,11.9
2018-04-26T02:39:40.552Z,11.84
2018-04-26T02:40:06.685Z,11.91
2018-04-26T02:40:32.822Z,11.81
2018-04-26T02:40:58.966Z,11.86
2018-04-26T02:41:25.126Z,11.86
2018-04-26T02:41:51.264Z,11.81
2018-04-26T02:42:17.424Z,11.88
2018-04-26T02:42:43.587Z,11.86
2018-04-26T02:43:09.749Z,11.81
2018-04-26T02:43:35.908Z,11.81
2018-04-26T02:44:02.047Z,11.8
2018-04-26T02:44:28.215Z,11.75
2018-04-26T02:44:54.404Z,11.81
2018-04-26T02:45:20.605Z,11.75
2018-04-26T02:45:46.767Z,11.86
2018-04-26T02:46:12.954Z,11.87
2018-04-26T02:46:39.151Z,11.78
2018-04-26T02:47:05.358Z,11.83
2018-04-26T02:47:31.550Z,11.84
2018-04-26T02:47:57.696Z,11.78
2018-04-26T02:48:23.855Z,11.75
2018-04-26T02:48:49.985Z,11.73
2018-04-26T02:49:16.128Z,11.73
2018-04-26T02:49:42.297Z,11.75
2018-04-26T02:50:08.439Z,11.73
2018-04-26T02:50:34.598Z,11.78
2018-04-26T02:51:00.733Z,11.81
2018-04-26T02:51:26.878Z,11.78
2018-04-26T02:51:53.082Z,11.77
2018-04-26T02:52:19.280Z,11.77
2018-04-26T02:52:45.443Z,11.8
2018-04-26T02:53:11.625Z,11.73
2018-04-26T02:53:37.761Z,11.8
2018-04-26T02:54:03.960Z,11.8
2018-04-26T02:54:30.111Z,11.81
2018-04-26T02:54:56.291Z,11.8
2018-04-26T02:55:22.456Z,11.77
2018-04-26T02:55:48.580Z,11.75
2018-04-26T02:56:14.714Z,11.78
2018-04-26T02:56:40.857Z,11.8
2018-04-26T02:57:06.995Z,11.73
2018-04-26T02:57:33.153Z,11.77
2018-04-26T02:57:59.325Z,11.77
2018-04-26T02:58:25.468Z,11.8
2018-04-26T02:58:51.609Z,11.72
2018-04-26T02:59:17.744Z,11.7
2018-04-26T02:59:43.881Z,11.63
2018-04-26T03:00:10.029Z,11.63
2018-04-26T03:00:36.183Z,11.65
2018-04-26T03:01:02.348Z,11.62
2018-04-26T03:01:28.502Z,11.69
2018-04-26T03:01:54.674Z,11.63
2018-04-26T03:02:20.811Z,11.66
2018-04-26T03:02:46.957Z,11.69
2018-04-26T03:03:13.115Z,11.62
2018-04-26T03:03:39.279Z,11.72
2018-04-26T03:04:05.443Z,11.62
2018-04-26T03:04:31.584Z,11.7
2018-04-26T03:04:57.750Z,11.72
2018-04-26T03:05:23.912Z,11.69
2018-04-26T03:05:50.099Z,11.7
2018-04-26T03:06:16.258Z,11.73
2018-04-26T03:06:42.432Z,11.7
2018-04-26T03:07:08.557Z,11.72
2018-04-26T03:07:34.737Z,11.7
2018-04-26T03:08:00.871Z,11.68
2018-04-26T03:08:27.028Z,11.65
2018-04-26T03:08:53.251Z,11.59
2018-04-26T03:09:19.364Z,11.63
2018-04-26T03:09:45.523Z,11.66
2018-04-26T03:10:11.688Z,11.7
2018-04-26T03:10:37.830Z,11.59
2018-04-26T03:11:04.011Z,11.6
2018-04-26T03:11:30.153Z,11.68
2018-04-26T03:11:56.292Z,11.57
2018-04-26T03:12:22.461Z,11.65
2018-04-26T03:12:48.626Z,11.73
2018-04-26T03:13:14.819Z,11.6
2018-04-26T03:13:40.980Z,11.65
2018-04-26T03:14:07.124Z,11.69
2018-04-26T03:14:33.270Z,11.6
2018-04-26T03:14:59.405Z,11.63
2018-04-26T03:15:25.564Z,11.6
2018-04-26T03:15:51.707Z,11.6
2018-04-26T03:16:17.865Z,11.5
2018-04-26T03:16:44.015Z,11.62
2018-04-26T03:17:10.177Z,11.63
2018-04-26T03:17:36.345Z,11.63
2018-04-26T03:18:02.474Z,11.55
2018-04-26T03:18:28.611Z,11.54
2018-04-26T03:18:54.771Z,11.52
2018-04-26T03:19:20.934Z,11.47
2018-04-26T03:19:47.075Z,11.57
2018-04-26T03:20:13.225Z,11.48
2018-04-26T03:20:39.358Z,11.48
2018-04-26T03:21:05.520Z,11.55
2018-04-26T03:21:31.716Z,11.51
2018-04-26T03:21:57.851Z,11.6
2018-04-26T03:22:24.002Z,11.52
2018-04-26T03:22:50.133Z,11.5
2018-04-26T03:23:16.307Z,11.52
2018-04-26T03:23:42.454Z,11.6
2018-04-26T03:24:08.619Z,11.51
2018-04-26T03:24:34.750Z,11.55
2018-04-26T03:25:00.896Z,11.54
2018-04-26T03:25:27.029Z,11.52
2018-04-26T03:25:53.164Z,11.59
2018-04-26T03:26:19.308Z,11.51
2018-04-26T03:26:45.466Z,11.52
2018-04-26T03:27:11.624Z,11.51
2018-04-26T03:27:37.751Z,11.51
2018-04-26T03:28:03.888Z,11.51
2018-04-26T03:28:30.029Z,11.47
2018-04-26T03:28:56.165Z,11.5
2018-04-26T03:29:22.308Z,11.55
2018-04-26T03:29:48.468Z,11.5
2018-04-26T03:30:14.600Z,11.59
2018-04-26T03:30:40.766Z,11.51
2018-04-26T03:31:06.971Z,11.47
2018-04-26T03:31:33.153Z,11.51
2018-04-26T03:31:59.360Z,11.47
2018-04-26T03:32:25.499Z,11.43
2018-04-26T03:32:51.644Z,11.35
2018-04-26T03:33:17.797Z,11.47
2018-04-26T03:33:43.936Z,11.37
2018-04-26T03:34:10.074Z,11.4
2018-04-26T03:34:36.210Z,11.3
2018-04-26T03:35:02.353Z,11.32
2018-04-26T03:35:28.504Z,11.29
2018-04-26T03:35:54.662Z,11.33
2018-04-26T03:36:20.797Z,11.32
2018-04-26T03:36:46.935Z,11.3
2018-04-26T03:37:13.078Z,11.37
2018-04-26T03:37:39.211Z,11.33
2018-04-26T03:38:05.346Z,11.32
2018-04-26T03:38:31.508Z,11.33
2018-04-26T03:38:57.669Z,11.32
2018-04-26T03:39:23.806Z,11.29
2018-04-26T03:39:49.947Z,11.35
2018-04-26T03:40:16.112Z,11.3
2018-04-26T03:40:42.255Z,11.25
2018-04-26T03:41:08.391Z,11.3
2018-04-26T03:41:34.537Z,11.23
2018-04-26T03:42:00.680Z,11.27
2018-04-26T03:42:26.817Z,11.32
2018-04-26T03:42:52.956Z,11.33
2018-04-26T03:43:19.126Z,11.29
2018-04-26T03:43:45.253Z,11.33
2018-04-26T03:44:11.389Z,11.36
2018-04-26T03:44:37.532Z,11.35
2018-04-26T03:45:03.667Z,11.29
2018-04-26T03:45:29.799Z,11.25
2018-04-26T03:45:55.938Z,11.35
2018-04-26T03:46:22.084Z,11.25
2018-04-26T03:46:48.220Z,11.27
2018-04-26T03:47:14.383Z,11.22
2018-04-26T03:47:40.521Z,11.29
2018-04-26T03:48:06.684Z,11.27
2018-04-26T03:48:32.818Z,11.29
2018-04-26T03:48:58.989Z,11.3
2018-04-26T03:49:25.147Z,11.35
2018-04-26T03:49:51.666Z,11.3
2018-04-26T03:50:17.800Z,11.25
2018-04-26T03:50:43.939Z,11.23
2018-04-26T03:51:10.097Z,11.29
2018-04-26T03:51:36.238Z,11.4
2018-04-26T03:52:02.391Z,11.3
2018-04-26T03:52:28.530Z,11.36
2018-04-26T03:52:54.669Z,11.44
2018-04-26T03:53:20.824Z,11.32
2018-04-26T03:53:46.971Z,11.33
2018-04-26T03:54:13.106Z,11.37
2018-04-26T03:54:39.248Z,11.4
2018-04-26T03:55:05.396Z,11.4
2018-04-26T03:55:31.535Z,11.41
2018-04-26T03:55:57.675Z,11.35
2018-04-26T03:56:23.809Z,11.35
2018-04-26T03:56:49.952Z,11.44
2018-04-26T03:57:16.096Z,11.35
2018-04-26T03:57:42.228Z,11.36
2018-04-26T03:58:08.363Z,11.36
2018-04-26T03:58:34.525Z,11.33
2018-04-26T03:59:00.685Z,11.41
2018-04-26T03:59:26.824Z,11.37
2018-04-26T03:59:52.971Z,11.37
2018-04-26T04:00:19.131Z,11.41
2018-04-26T04:00:45.272Z,11.44
2018-04-26T04:01:11.426Z,11.37
2018-04-26T04:01:37.598Z,11.37
2018-04-26T04:02:03.748Z,11.36
2018-04-26T04:02:29.881Z,11.3
2018-04-26T04:02:56.033Z,11.32
2018-04-26T04:03:22.189Z,11.32
2018-04-26T04:03:48.333Z,11.32
2018-04-26T04:04:14.460Z,11.23
2018-04-26T04:04:40.628Z,11.26
2018-04-26T04:05:06.795Z,11.27
2018-04-26T04:05:32.926Z,11.33
2018-04-26T04:05:59.065Z,11.35
2018-04-26T04:06:25.258Z,11.4
2018-04-26T04:06:51.393Z,11.44
2018-04-26T04:07:17.528Z,11.36
2018-04-26T04:07:43.667Z,11.4
2018-04-26T04:08:09.801Z,11.35
2018-04-26T04:08:35.940Z,11.36
2018-04-26T04:09:02.071Z,11.33
2018-04-26T04:09:28.204Z,11.36
2018-04-26T04:09:54.342Z,11.4
2018-04-26T04:10:20.474Z,11.41
2018-04-26T04:10:46.621Z,11.41
2018-04-26T04:11:12.788Z,11.43
2018-04-26T04:11:38.978Z,11.36
2018-04-26T04:12:05.116Z,11.37
2018-04-26T04:12:31.254Z,11.41
2018-04-26T04:12:57.402Z,11.35
2018-04-26T04:13:23.538Z,11.4
2018-04-26T04:13:49.757Z,11.4
2018-04-26T04:14:15.838Z,11.47
2018-04-26T04:14:41.983Z,11.43
2018-04-26T04:15:08.141Z,11.47
2018-04-26T04:15:34.283Z,11.44
2018-04-26T04:16:00.422Z,11.51
2018-04-26T04:16:26.559Z,11.48
2018-04-26T04:16:52.699Z,11.52
2018-04-26T04:17:18.836Z,11.52
2018-04-26T04:17:44.980Z,11.51
2018-04-26T04:18:11.175Z,11.48
2018-04-26T04:18:37.304Z,11.41
2018-04-26T04:19:03.472Z,11.35
2018-04-26T04:19:29.604Z,11.4
2018-04-26T04:19:55.759Z,11.29
2018-04-26T04:20:21.905Z,11.3
2018-04-26T04:20:48.039Z,11.26
2018-04-26T04:21:14.204Z,11.23
2018-04-26T04:21:40.348Z,11.18
2018-04-26T04:22:06.481Z,11.25
2018-04-26T04:22:32.619Z,11.22
2018-04-26T04:22:58.755Z,11.17
2018-04-26T04:23:24.885Z,11.18
2018-04-26T04:23:51.026Z,11.22
2018-04-26T04:24:17.186Z,11.18
2018-04-26T04:24:43.348Z,11.15
2018-04-26T04:25:09.487Z,11.19
2018-04-26T04:25:35.646Z,11.15
2018-04-26T04:26:01.797Z,11.12
2018-04-26T04:26:27.918Z,11.14
2018-04-26T04:26:54.085Z,11.17
2018-04-26T04:27:20.221Z,11.19
2018-04-26T04:27:46.360Z,11.12
2018-04-26T04:28:12.486Z,11.08
2018-04-26T04:28:38.629Z,11.07
2018-04-26T04:29:04.763Z,11.12
2018-04-26T04:29:30.892Z,11.14
2018-04-26T04:29:57.082Z,11.02
2018-04-26T04:30:23.242Z,11.07
2018-04-26T04:30:49.398Z,11.02
2018-04-26T04:31:15.560Z,11.1
2018-04-26T04:31:41.701Z,11.12
2018-04-26T04:32:07.855Z,11.11
2018-04-26T04:32:33.992Z,11.1
2018-04-26T04:33:00.124Z,11.07
2018-04-26T04:33:26.261Z,10.97
2018-04-26T04:33:52.400Z,11.02
2018-04-26T04:34:18.568Z,11.11
2018-04-26T04:34:44.696Z,11.11
2018-04-26T04:35:10.857Z,11.1
2018-04-26T04:35:36.996Z,11.12
2018-04-26T04:36:03.139Z,11.19
2018-04-26T04:36:29.302Z,11.17
2018-04-26T04:36:55.433Z,11.22
2018-04-26T04:37:21.576Z,11.15
2018-04-26T04:37:47.713Z,11.08
2018-04-26T04:38:13.849Z,11.11
2018-04-26T04:38:39.990Z,11.14
2018-04-26T04:39:06.135Z,11.07
2018-04-26T04:39:32.268Z,11.04
2018-04-26T04:39:58.401Z,11.1
2018-04-26T04:40:24.550Z,11.07
2018-04-26T04:40:50.703Z,11.07
2018-04-26T04:41:16.844Z,10.99
2018-04-26T04:41:43.004Z,11.07
2018-04-26T04:42:09.440Z,11.04
2018-04-26T04:42:35.676Z,11.04
2018-04-26T04:43:01.817Z,11.07
2018-04-26T04:43:28.284Z,11.08
2018-04-26T04:43:54.432Z,11.02
2018-04-26T04:44:20.569Z,11.07
2018-04-26T04:44:46.706Z,11.07
2018-04-26T04:45:12.908Z,11.07
2018-04-26T04:45:39.013Z,11.11
2018-04-26T04:46:05.174Z,10.99
2018-04-26T04:46:31.359Z,10.99
2018-04-26T04:46:57.452Z,11
2018-04-26T04:47:23.607Z,11.04
2018-04-26T04:47:49.755Z,11.1
2018-04-26T04:48:15.882Z,10.99
2018-04-26T04:48:42.024Z,11.04
2018-04-26T04:49:08.160Z,11.05
2018-04-26T04:49:34.299Z,10.99
2018-04-26T04:50:00.438Z,11.11
2018-04-26T04:50:26.597Z,11.07
2018-04-26T04:50:52.736Z,11
2018-04-26T04:51:18.876Z,11.17
2018-04-26T04:51:45.017Z,11.19
2018-04-26T04:52:11.159Z,11.19
2018-04-26T04:52:37.292Z,11.22
2018-04-26T04:53:03.446Z,11.17
2018-04-26T04:53:29.586Z,11.19
2018-04-26T04:53:55.727Z,11.22
2018-04-26T04:54:21.870Z,11.19
2018-04-26T04:54:48.007Z,11.15
2018-04-26T04:55:14.149Z,11.12
2018-04-26T04:55:40.320Z,11.04
2018-04-26T04:56:06.480Z,11.14
2018-04-26T04:56:32.607Z,11.02
2018-04-26T04:56:58.745Z,11.05
2018-04-26T04:57:24.877Z,11.1
2018-04-26T04:57:51.019Z,10.97
2018-04-26T04:58:17.208Z,11.12
2018-04-26T04:58:43.341Z,11.12
2018-04-26T04:59:09.549Z,11.02
2018-04-26T04:59:35.617Z,11
2018-04-26T05:00:01.787Z,11.15
2018-04-26T05:00:27.919Z,10.99
2018-04-26T05:00:54.056Z,11.12
2018-04-26T05:01:20.227Z,11.02
2018-04-26T05:01:46.383Z,11.08
2018-04-26T05:02:12.543Z,11.07
2018-04-26T05:02:38.680Z,11.08
2018-04-26T05:03:04.839Z,11
2018-04-26T05:03:30.979Z,11
2018-04-26T05:03:57.117Z,10.97
2018-04-26T05:04:23.256Z,11
2018-04-26T05:04:49.394Z,11.04
2018-04-26T05:05:15.570Z,10.92
2018-04-26T05:05:41.716Z,10.99
2018-04-26T05:06:07.857Z,10.93
2018-04-26T05:06:33.998Z,11.02
2018-04-26T05:07:00.135Z,11.02
2018-04-26T05:07:26.356Z,11
2018-04-26T05:07:52.438Z,10.99
2018-04-26T05:08:18.574Z,11.02
2018-04-26T05:08:44.714Z,11.02
2018-04-26T05:09:10.855Z,10.99
2018-04-26T05:09:36.995Z,10.96
2018-04-26T05:10:03.133Z,11
2018-04-26T05:10:29.268Z,11.05
2018-04-26T05:10:55.461Z,10.99
2018-04-26T05:11:21.597Z,11.04
2018-04-26T05:11:47.763Z,11
2018-04-26T05:12:13.936Z,11.04
2018-04-26T05:12:40.100Z,11.04
2018-04-26T05:13:06.263Z,11
2018-04-26T05:13:32.406Z,11
2018-04-26T05:13:58.539Z,10.93
2018-04-26T05:14:24.696Z,10.94
2018-04-26T05:14:50.847Z,10.92
2018-04-26T05:15:17.006Z,10.93
2018-04-26T05:15:43.219Z,10.99
2018-04-26T05:16:09.352Z,11
2018-04-26T05:16:35.484Z,10.96
2018-04-26T05:17:01.623Z,11
2018-04-26T05:17:27.756Z,11.1
2018-04-26T05:17:53.896Z,11.08
2018-04-26T05:18:20.037Z,11.04
2018-04-26T05:18:46.199Z,11.08
2018-04-26T05:19:12.368Z,11.05
2018-04-26T05:19:38.502Z,11.02
2018-04-26T05:20:04.640Z,11.04
2018-04-26T05:20:30.775Z,11.02
2018-04-26T05:20:56.921Z,11.17
2018-04-26T05:21:23.058Z,11.18
2018-04-26T05:21:49.199Z,11.12
2018-04-26T05:22:15.329Z,11.1
2018-04-26T05:22:41.469Z,11.23
2018-04-26T05:23:07.604Z,11.18
2018-04-26T05:23:33.746Z,11.14
2018-04-26T05:23:59.878Z,11.25
2018-04-26T05:24:26.024Z,11.19
2018-04-26T05:24:52.184Z,11.26
2018-04-26T05:25:18.322Z,11.23
2018-04-26T05:25:44.580Z,11.23
2018-04-26T05:26:10.622Z,11.26
2018-04-26T05:26:36.808Z,11.23
2018-04-26T05:27:02.944Z,11.25
2018-04-26T05:27:29.087Z,11.26
2018-04-26T05:27:55.227Z,11.26
2018-04-26T05:28:21.363Z,11.25
2018-04-26T05:28:47.507Z,11.29
2018-04-26T05:29:13.641Z,11.32
2018-04-26T05:29:39.813Z,11.29
2018-04-26T05:30:06.085Z,11.36
2018-04-26T05:30:32.126Z,11.27
2018-04-26T05:30:58.263Z,11.32
2018-04-26T05:31:24.410Z,11.36
2018-04-26T05:31:50.543Z,11.29
2018-04-26T05:32:16.679Z,11.32
2018-04-26T05:32:42.811Z,11.3
2018-04-26T05:33:08.947Z,11.25
2018-04-26T05:33:35.096Z,11.25
2018-04-26T05:34:01.261Z,11.27
2018-04-26T05:34:27.416Z,11.22
2018-04-26T05:34:53.550Z,11.29
2018-04-26T05:35:19.720Z,11.26
2018-04-26T05:35:45.860Z,11.26
2018-04-26T05:36:12.002Z,11.25
2018-04-26T05:36:38.152Z,11.23
2018-04-26T05:37:04.314Z,11.25
2018-04-26T05:37:30.451Z,11.3
2018-04-26T05:37:56.622Z,11.3
2018-04-26T05:38:22.760Z,11.32
2018-04-26T05:38:48.898Z,11.25